Time;durP1;ratioP1;P1;durP2;ratioP2;P2;SDS_P1;SDS_P2;PMS_P1;PMS_P2;Temp;Humidity;BMP_temperature;BMP_pressure;BME280_temperature;BME280_humidity;BME280_pressure;Samples;Min_cycle;Max_cycle;Signal;HPM_P1;HPM_P2
2022/07/14 00:00:01;;;;;;;6.75;4.60;;;25.80;99.90;;;;;;4155554;28;20041;-64
2022/07/14 00:02:09;;;;;;;6.07;4.40;;;25.80;99.90;;;;;;4156304;28;20140;-64
2022/07/14 00:04:15;;;;;;;7.53;4.10;;;25.90;99.90;;;;;;4157885;28;20503;-64
2022/07/14 00:06:22;;;;;;;7.20;4.20;;;25.80;99.90;;;;;;4159215;28;20053;-64
2022/07/14 00:08:28;;;;;;;10.23;4.20;;;25.70;99.90;;;;;;4160834;28;20431;-64
2022/07/14 00:10:36;;;;;;;5.63;3.75;;;25.70;99.90;;;;;;4155988;28;20838;-64
2022/07/14 00:12:42;;;;;;;6.28;3.30;;;25.70;99.90;;;;;;4155793;28;20041;-64
2022/07/14 00:14:47;;;;;;;6.78;3.50;;;25.80;99.90;;;;;;4182036;28;20068;-64
2022/07/14 00:16:56;;;;;;;6.47;3.40;;;25.70;99.90;;;;;;4161631;28;20361;-65
2022/07/14 00:19:01;;;;;;;6.47;3.13;;;25.80;99.90;;;;;;4151909;28;20064;-64
2022/07/14 00:21:06;;;;;;;7.50;4.15;;;25.80;99.90;;;;;;4155312;28;20144;-65
2022/07/14 00:23:11;;;;;;;7.30;3.78;;;25.80;99.90;;;;;;4144169;28;20486;-64
2022/07/14 00:25:16;;;;;;;7.20;3.50;;;25.70;99.90;;;;;;4151461;28;20038;-64
2022/07/14 00:27:22;;;;;;;7.75;3.47;;;25.80;99.90;;;;;;4155498;28;20144;-64
2022/07/14 00:29:29;;;;;;;5.10;3.20;;;25.70;99.90;;;;;;4145463;28;20041;-64
2022/07/14 00:31:34;;;;;;;10.52;3.50;;;25.70;99.90;;;;;;4156774;28;20073;-64
2022/07/14 00:33:40;;;;;;;7.38;3.50;;;25.70;99.90;;;;;;4149708;28;20053;-64
2022/07/14 00:35:47;;;;;;;4.93;3.15;;;25.60;99.90;;;;;;4151878;28;20060;-64
2022/07/14 00:37:51;;;;;;;4.55;2.70;;;25.60;99.90;;;;;;4154437;28;20049;-64
2022/07/14 00:40:14;;;;;;;4.82;3.05;;;25.70;99.90;;;;;;4156033;28;20045;-64
2022/07/14 00:42:40;;;;;;;7.05;3.15;;;25.70;99.90;;;;;;4155158;28;20049;-64
2022/07/14 00:45:09;;;;;;;4.13;2.70;;;25.70;99.90;;;;;;4140796;28;20446;-64
2022/07/14 00:47:15;;;;;;;4.97;3.30;;;25.70;99.90;;;;;;4151172;28;20053;-64
2022/07/14 00:49:37;;;;;;;5.78;3.00;;;25.80;99.90;;;;;;4139873;28;20148;-64
2022/07/14 00:51:43;;;;;;;4.22;3.20;;;25.80;99.90;;;;;;4139916;28;20115;-64
2022/07/14 00:53:55;;;;;;;5.72;3.22;;;25.70;99.90;;;;;;4129101;28;20046;-64
2022/07/14 00:56:03;;;;;;;7.15;3.47;;;25.70;99.90;;;;;;4146286;28;20050;-64
2022/07/14 00:58:08;;;;;;;3.65;2.80;;;25.70;99.90;;;;;;4156379;28;20061;-63
2022/07/14 01:00:15;;;;;;;3.75;2.80;;;25.70;99.90;;;;;;4154924;28;20052;-64
2022/07/14 01:02:21;;;;;;;4.63;3.22;;;25.70;99.90;;;;;;4156111;28;20660;-63
2022/07/14 01:04:28;;;;;;;5.75;2.95;;;25.80;99.90;;;;;;4153769;28;20080;-65
2022/07/14 01:06:39;;;;;;;6.25;3.25;;;25.90;99.90;;;;;;4155547;28;20057;-64
2022/07/14 01:08:43;;;;;;;7.85;3.40;;;26.00;99.90;;;;;;4154602;28;20104;-64
2022/07/14 01:10:50;;;;;;;4.97;3.40;;;26.10;99.90;;;;;;4156173;28;20054;-66
2022/07/14 01:13:01;;;;;;;7.93;3.63;;;26.00;99.90;;;;;;4155912;28;20049;-63
2022/07/14 01:15:07;;;;;;;4.47;3.47;;;26.00;99.90;;;;;;4153012;28;20041;-64
2022/07/14 01:17:15;;;;;;;3.97;3.20;;;26.10;99.90;;;;;;4156235;28;20136;-64
2022/07/14 01:19:22;;;;;;;6.88;4.30;;;26.20;99.90;;;;;;4156188;28;20052;-62
2022/07/14 01:21:27;;;;;;;7.18;4.50;;;26.10;99.90;;;;;;4153348;28;20045;-63
2022/07/14 01:23:33;;;;;;;7.43;4.38;;;26.00;99.90;;;;;;4156141;28;20546;-63
2022/07/14 01:25:40;;;;;;;6.63;4.78;;;26.10;99.90;;;;;;4154688;28;20072;-64
2022/07/14 01:27:45;;;;;;;7.45;4.32;;;26.00;99.90;;;;;;4153363;28;20050;-63
2022/07/14 01:29:52;;;;;;;4.72;4.30;;;26.10;99.90;;;;;;4155316;28;20049;-63
2022/07/14 01:31:59;;;;;;;5.40;4.20;;;26.10;99.90;;;;;;4176948;28;20048;-64
2022/07/14 01:34:03;;;;;;;5.35;3.97;;;26.00;99.90;;;;;;4154400;28;20128;-64
2022/07/14 01:36:10;;;;;;;4.70;3.85;;;26.10;99.90;;;;;;4179100;28;20053;-63
2022/07/14 01:38:16;;;;;;;6.20;3.60;;;26.20;99.90;;;;;;4154634;28;20041;-63
2022/07/14 01:40:20;;;;;;;5.40;3.55;;;26.30;99.90;;;;;;4155634;28;20054;-63
2022/07/14 01:42:28;;;;;;;6.30;3.53;;;26.20;99.90;;;;;;4152060;28;20108;-63
2022/07/14 01:44:34;;;;;;;4.22;3.40;;;26.20;99.90;;;;;;4154129;28;20136;-63
2022/07/14 01:46:43;;;;;;;5.82;3.70;;;26.30;99.90;;;;;;4138640;28;20439;-63
2022/07/14 01:49:08;;;;;;;;;;;26.40;99.90;;;;;;4152680;28;20065;-63
2022/07/14 01:51:14;;;;;;;4.63;3.28;;;26.50;99.90;;;;;;4154292;28;19932;-64
2022/07/14 01:53:19;;;;;;;3.08;2.75;;;26.40;99.90;;;;;;4154631;28;20053;-66
2022/07/14 01:55:26;;;;;;;5.85;3.80;;;26.50;99.90;;;;;;4155523;28;20069;-64
2022/07/14 01:57:32;;;;;;;4.07;3.40;;;26.40;99.90;;;;;;4153075;28;20049;-64
2022/07/14 01:59:36;;;;;;;3.88;3.00;;;26.50;99.90;;;;;;4154186;28;20048;-64
2022/07/14 02:01:44;;;;;;;5.07;2.95;;;26.60;99.90;;;;;;4153783;28;20896;-64
2022/07/14 02:03:52;;;;;;;5.00;2.90;;;26.60;99.90;;;;;;4152075;28;20063;-64
2022/07/14 02:05:56;;;;;;;4.57;2.53;;;26.60;99.90;;;;;;4181929;28;20153;-65
2022/07/14 02:08:03;;;;;;;3.53;2.58;;;26.60;99.90;;;;;;4158483;28;20052;-64
2022/07/14 02:12:29;;;;;;;3.40;2.50;;;26.80;99.90;;;;;;4156869;28;20057;-63
2022/07/14 02:14:36;;;;;;;2.60;2.40;;;26.90;99.90;;;;;;4158079;28;20053;-64
2022/07/14 02:16:42;;;;;;;2.95;2.30;;;26.80;99.90;;;;;;4156879;28;20463;-62
2022/07/14 02:18:49;;;;;;;3.75;2.25;;;26.90;99.90;;;;;;4155303;28;20053;-63
2022/07/14 02:20:56;;;;;;;3.40;2.50;;;26.90;99.90;;;;;;4158147;28;20083;-63
2022/07/14 02:23:04;;;;;;;5.57;1.98;;;26.90;99.90;;;;;;4158431;28;20049;-64
2022/07/14 02:25:08;;;;;;;2.45;2.03;;;26.90;99.90;;;;;;4140217;28;20108;-63
2022/07/14 02:27:15;;;;;;;3.22;1.63;;;27.10;99.90;;;;;;4156723;28;20057;-64
2022/07/14 02:29:21;;;;;;;1.95;1.55;;;27.10;99.90;;;;;;4129437;28;20051;-64
2022/07/14 02:31:26;;;;;;;2.25;1.77;;;27.10;99.90;;;;;;4145523;28;20048;-64
2022/07/14 02:33:32;;;;;;;2.60;1.80;;;27.20;99.90;;;;;;4157928;28;20041;-64
2022/07/14 02:35:40;;;;;;;2.63;1.38;;;27.20;99.90;;;;;;4123067;28;20108;-64
2022/07/14 02:37:45;;;;;;;2.63;1.50;;;27.30;99.90;;;;;;4155485;28;20065;-64
2022/07/14 02:39:51;;;;;;;3.05;1.77;;;27.50;99.90;;;;;;4181754;28;20473;-64
2022/07/14 02:41:56;;;;;;;2.67;1.83;;;27.60;99.90;;;;;;4156584;28;20037;-63
2022/07/14 02:44:02;;;;;;;3.97;1.90;;;27.60;99.90;;;;;;4156390;28;20046;-63
2022/07/14 02:46:07;;;;;;;3.03;1.83;;;27.40;99.90;;;;;;4155853;28;20050;-64
2022/07/14 02:48:12;;;;;;;5.03;1.95;;;27.60;99.90;;;;;;4160877;28;20049;-64
2022/07/14 02:50:19;;;;;;;2.60;1.50;;;27.60;99.90;;;;;;4180140;28;20051;-64
2022/07/14 02:52:31;;;;;;;3.45;1.13;;;27.60;99.90;;;;;;4171133;28;20045;-63
2022/07/14 02:54:49;;;;;;;2.92;1.27;;;27.50;99.90;;;;;;4156347;28;20045;-63
2022/07/14 02:56:58;;;;;;;2.83;1.25;;;27.60;99.90;;;;;;4155141;28;20168;-64
2022/07/14 02:59:06;;;;;;;2.13;1.33;;;27.70;99.90;;;;;;4139151;28;20781;-65
2022/07/14 03:01:17;;;;;;;2.63;1.00;;;27.80;99.90;;;;;;4156065;28;20882;-66
2022/07/14 03:03:22;;;;;;;3.72;1.60;;;27.90;99.90;;;;;;4157231;28;20053;-67
2022/07/14 03:05:27;;;;;;;2.13;1.20;;;28.10;99.90;;;;;;4155158;28;20133;-66
2022/07/14 03:07:32;;;;;;;1.85;0.90;;;28.10;99.90;;;;;;4155575;28;20136;-66
2022/07/14 03:09:37;;;;;;;1.00;0.85;;;28.20;99.90;;;;;;4135854;28;20532;-65
2022/07/14 03:11:44;;;;;;;1.52;1.00;;;28.30;99.90;;;;;;4154180;28;20049;-65
2022/07/14 03:13:49;;;;;;;3.13;0.98;;;28.30;99.90;;;;;;4159093;28;20057;-66
2022/07/14 03:15:55;;;;;;;0.77;0.70;;;28.40;99.90;;;;;;4159324;28;20057;-64
2022/07/14 03:18:02;;;;;;;2.20;0.68;;;28.50;99.90;;;;;;4155389;28;20448;-64
2022/07/14 03:20:13;;;;;;;1.67;1.23;;;28.60;99.90;;;;;;4153298;28;20455;-65
2022/07/14 03:22:19;;;;;;;1.80;1.10;;;28.50;99.90;;;;;;4164034;28;20417;-65
2022/07/14 03:24:26;;;;;;;1.10;0.70;;;28.50;99.90;;;;;;4163004;28;20052;-65
2022/07/14 03:26:31;;;;;;;1.00;0.70;;;28.40;99.90;;;;;;4163715;28;20128;-65
2022/07/14 03:28:42;;;;;;;2.92;1.02;;;28.30;99.90;;;;;;4160225;28;20099;-65
2022/07/14 03:30:56;;;;;;;1.02;0.75;;;28.40;99.90;;;;;;4154632;28;20041;-66
2022/07/14 03:33:05;;;;;;;1.42;0.80;;;28.30;99.90;;;;;;4154105;28;20064;-65
2022/07/14 03:35:11;;;;;;;2.05;0.73;;;28.40;99.90;;;;;;4158608;28;20041;-64
2022/07/14 03:37:17;;;;;;;0.70;0.70;;;28.50;99.90;;;;;;4172436;28;20075;-65
2022/07/14 03:39:29;;;;;;;2.97;1.40;;;28.70;99.90;;;;;;4154931;28;20054;-65
2022/07/14 03:41:33;;;;;;;2.65;1.13;;;28.80;99.90;;;;;;4156262;28;20125;-64
2022/07/14 03:43:41;;;;;;;2.08;1.88;;;28.80;99.90;;;;;;4153596;28;20088;-63
2022/07/14 03:45:50;;;;;;;1.63;1.23;;;28.70;99.90;;;;;;4162672;28;20038;-65
2022/07/14 03:47:55;;;;;;;0.88;0.88;;;28.90;99.90;;;;;;4155193;28;20045;-65
2022/07/14 03:50:06;;;;;;;2.22;1.73;;;29.00;99.90;;;;;;4170072;28;20486;-64
2022/07/14 03:52:12;;;;;;;1.30;1.10;;;29.20;99.90;;;;;;4162749;28;20052;-64
2022/07/14 03:54:16;;;;;;;3.38;1.55;;;29.20;99.90;;;;;;4155461;28;20087;-64
2022/07/14 03:56:21;;;;;;;1.58;0.98;;;29.40;99.90;;;;;;4153787;28;20163;-65
2022/07/14 03:58:29;;;;;;;1.73;1.20;;;29.60;99.90;;;;;;4152591;28;20062;-65
2022/07/14 04:00:35;;;;;;;1.77;0.98;;;29.50;99.90;;;;;;4154814;28;20053;-66
2022/07/14 04:02:42;;;;;;;1.17;0.80;;;29.50;99.90;;;;;;4155355;28;20542;-64
2022/07/14 04:04:54;;;;;;;4.88;1.48;;;29.60;99.90;;;;;;4154752;28;20137;-64
2022/07/14 04:06:59;;;;;;;1.00;0.70;;;29.60;99.90;;;;;;4136511;28;20476;-65
2022/07/14 04:09:06;;;;;;;2.22;0.90;;;29.60;99.90;;;;;;4139074;28;20046;-66
2022/07/14 04:11:21;;;;;;;1.98;1.00;;;29.70;99.90;;;;;;4161729;28;20492;-65
2022/07/14 04:13:26;;;;;;;1.02;0.70;;;29.70;99.90;;;;;;4154882;28;20116;-66
2022/07/14 04:15:32;;;;;;;0.77;0.70;;;29.70;99.90;;;;;;4153511;28;20099;-66
2022/07/14 04:17:38;;;;;;;0.95;0.70;;;29.80;99.90;;;;;;4169762;28;20714;-65
2022/07/14 04:19:42;;;;;;;0.80;0.60;;;29.90;99.90;;;;;;4152251;28;20156;-66
2022/07/14 04:21:48;;;;;;;0.82;0.77;;;29.90;99.90;;;;;;4153346;28;20045;-66
2022/07/14 04:24:14;;;;;;;0.60;0.60;;;29.90;99.90;;;;;;4166973;28;20072;-66
2022/07/14 04:26:20;;;;;;;0.88;0.75;;;30.00;99.90;;;;;;4152257;28;20046;-68
2022/07/14 04:28:25;;;;;;;0.77;0.55;;;29.90;99.90;;;;;;4152648;28;20939;-67
2022/07/14 04:30:30;;;;;;;0.82;0.70;;;29.90;99.90;;;;;;4155767;28;20041;-69
2022/07/14 04:32:42;;;;;;;3.95;0.52;;;30.10;99.90;;;;;;4155046;28;20103;-66
2022/07/14 04:34:52;;;;;;;1.75;0.60;;;30.20;99.90;;;;;;4154531;28;20045;-67
2022/07/14 04:37:04;;;;;;;0.98;0.65;;;30.20;99.90;;;;;;4138076;28;20137;-69
2022/07/14 04:39:10;;;;;;;2.88;0.60;;;30.20;99.90;;;;;;4154790;28;20542;-66
2022/07/14 04:41:20;;;;;;;1.75;0.50;;;30.10;99.90;;;;;;4153773;28;20067;-66
2022/07/14 04:43:27;;;;;;;1.00;0.90;;;30.00;99.90;;;;;;4181476;28;20045;-65
2022/07/14 04:45:35;;;;;;;0.60;0.60;;;30.00;99.90;;;;;;4154015;28;20079;-65
2022/07/14 04:47:40;;;;;;;1.02;0.60;;;30.10;99.90;;;;;;4155755;28;21446;-66
2022/07/14 04:52:07;;;;;;;1.47;0.50;;;30.40;99.90;;;;;;4153459;28;20049;-65
2022/07/14 04:54:35;;;;;;;0.45;0.40;;;30.60;99.90;;;;;;4149915;28;20037;-64
2022/07/14 04:57:03;;;;;;;0.85;0.50;;;30.70;99.90;;;;;;4153267;28;20045;-66
2022/07/14 04:59:14;;;;;;;0.65;0.60;;;30.60;99.90;;;;;;4153832;28;20432;-65
2022/07/14 05:01:19;;;;;;;4.70;0.70;;;30.20;99.90;;;;;;4153715;28;20049;-68
2022/07/14 05:03:26;;;;;;;1.05;0.60;;;30.30;99.90;;;;;;4155155;28;20736;-67
2022/07/14 05:05:32;;;;;;;2.17;0.60;;;30.40;99.90;;;;;;4183246;28;20048;-67
2022/07/14 05:07:38;;;;;;;1.88;0.60;;;30.40;99.90;;;;;;4154977;28;20409;-66
2022/07/14 05:09:50;;;;;;;0.82;0.50;;;30.40;99.90;;;;;;4155524;28;20155;-65
2022/07/14 05:11:55;;;;;;;2.00;0.60;;;30.70;99.90;;;;;;4155369;28;20045;-63
2022/07/14 05:14:03;;;;;;;0.60;0.55;;;30.70;99.90;;;;;;4153865;28;20049;-64
2022/07/14 05:16:08;;;;;;;0.70;0.40;;;30.60;99.90;;;;;;4154655;28;20072;-63
2022/07/14 05:18:13;;;;;;;2.10;0.50;;;30.70;99.90;;;;;;4155187;28;20207;-65
2022/07/14 05:20:18;;;;;;;1.15;0.88;;;30.90;99.90;;;;;;4153993;28;20111;-64
2022/07/14 05:22:25;;;;;;;0.70;0.60;;;31.10;99.90;;;;;;4153103;28;20060;-64
2022/07/14 05:24:30;;;;;;;0.68;0.43;;;31.20;99.90;;;;;;4153521;28;20037;-64
2022/07/14 05:26:36;;;;;;;1.85;0.70;;;31.20;99.90;;;;;;4154032;28;20065;-64
2022/07/14 05:28:41;;;;;;;0.75;0.60;;;31.10;99.90;;;;;;4153445;28;20484;-64
2022/07/14 05:30:46;;;;;;;1.30;0.80;;;30.70;99.90;;;;;;4150719;28;20478;-64
2022/07/14 05:32:51;;;;;;;1.33;0.60;;;30.70;99.90;;;;;;4153782;28;20048;-64
2022/07/14 05:34:58;;;;;;;1.67;0.80;;;30.50;99.90;;;;;;4154052;28;20041;-64
2022/07/14 05:37:04;;;;;;;0.73;0.55;;;30.50;99.90;;;;;;4154665;28;20764;-63
2022/07/14 05:39:15;;;;;;;1.38;0.90;;;30.70;99.90;;;;;;4168412;28;20037;-64
2022/07/14 05:41:29;;;;;;;1.15;0.82;;;30.80;99.90;;;;;;4156921;28;20096;-64
2022/07/14 05:43:35;;;;;;;1.00;0.63;;;30.90;99.90;;;;;;4156423;28;20214;-65
2022/07/14 05:45:41;;;;;;;1.02;0.68;;;31.30;99.90;;;;;;4156154;28;20037;-64
2022/07/14 05:47:46;;;;;;;0.63;0.57;;;31.50;99.90;;;;;;4183565;28;20765;-65
2022/07/14 05:49:51;;;;;;;1.05;0.60;;;31.50;99.90;;;;;;4156613;28;20045;-65
2022/07/14 05:52:00;;;;;;;1.02;0.52;;;31.40;99.90;;;;;;4168326;28;20103;-65
2022/07/14 05:54:07;;;;;;;0.63;0.47;;;31.20;99.90;;;;;;4155101;28;20164;-65
2022/07/14 05:56:12;;;;;;;1.30;0.57;;;31.10;99.90;;;;;;4155953;28;20491;-65
2022/07/14 05:58:19;;;;;;;1.55;0.65;;;31.10;99.90;;;;;;4161566;28;20053;-65
2022/07/14 06:00:27;;;;;;;1.10;0.73;;;31.00;99.90;;;;;;4157006;28;20052;-65
2022/07/14 06:02:32;;;;;;;1.17;0.88;;;31.00;99.90;;;;;;4156478;28;20549;-63
2022/07/14 06:04:37;;;;;;;1.77;0.98;;;30.90;99.90;;;;;;4156515;28;20133;-64
2022/07/14 06:06:47;;;;;;;2.08;0.80;;;30.90;99.90;;;;;;4158017;28;20052;-64
2022/07/14 06:08:51;;;;;;;3.08;0.90;;;31.00;99.90;;;;;;4181447;28;20048;-65
2022/07/14 06:10:57;;;;;;;1.33;0.82;;;31.10;99.90;;;;;;4155940;28;20045;-64
2022/07/14 06:13:08;;;;;;;1.08;0.73;;;31.10;99.90;;;;;;4157207;28;20049;-65
2022/07/14 06:15:18;;;;;;;0.82;0.55;;;31.10;99.90;;;;;;4156088;28;20049;-64
2022/07/14 06:17:24;;;;;;;2.35;0.82;;;31.00;99.90;;;;;;4156699;28;20053;-64
2022/07/14 06:19:31;;;;;;;2.58;0.70;;;31.00;99.90;;;;;;4154668;28;20057;-65
2022/07/14 06:21:35;;;;;;;1.20;0.80;;;31.00;99.90;;;;;;4158161;28;20037;-65
2022/07/14 06:23:42;;;;;;;0.98;0.55;;;30.90;99.90;;;;;;4140892;28;20093;-65
2022/07/14 06:25:49;;;;;;;1.90;0.70;;;30.80;99.90;;;;;;4170971;28;20708;-65
2022/07/14 06:27:58;;;;;;;1.48;0.57;;;30.80;99.90;;;;;;4155723;28;20132;-64
2022/07/14 06:30:07;;;;;;;1.83;0.60;;;30.70;99.90;;;;;;4156364;28;20073;-64
2022/07/14 06:32:15;;;;;;;1.42;0.70;;;30.70;99.90;;;;;;4155714;28;20053;-64
2022/07/14 06:34:20;;;;;;;2.83;0.57;;;30.70;99.90;;;;;;4171808;28;20535;-64
2022/07/14 06:36:44;;;;;;;1.85;0.75;;;30.70;99.90;;;;;;4157710;28;20263;-64
2022/07/14 06:38:48;;;;;;;1.48;0.68;;;30.70;99.90;;;;;;4156721;28;20053;-64
2022/07/14 06:40:54;;;;;;;2.13;1.10;;;30.60;99.90;;;;;;4156878;28;20050;-63
2022/07/14 06:43:00;;;;;;;3.58;1.17;;;30.60;99.90;;;;;;4156539;28;20038;-63
2022/07/14 06:45:17;;;;;;;1.95;1.40;;;30.60;99.90;;;;;;4156549;28;20115;-63
2022/07/14 06:47:22;;;;;;;1.38;0.73;;;30.60;99.90;;;;;;4158034;28;20116;-63
2022/07/14 06:49:27;;;;;;;3.90;1.10;;;30.50;99.90;;;;;;4155463;28;20767;-63
2022/07/14 06:51:33;;;;;;;1.55;1.13;;;30.30;99.90;;;;;;4156265;28;20419;-63
2022/07/14 06:53:38;;;;;;;2.97;1.23;;;30.30;99.90;;;;;;4156235;28;20144;-63
2022/07/14 06:55:43;;;;;;;1.85;1.00;;;30.30;99.90;;;;;;4157416;28;20592;-63
2022/07/14 06:57:50;;;;;;;1.45;0.88;;;30.30;99.90;;;;;;4155507;28;20053;-63
2022/07/14 07:00:07;;;;;;;0.80;0.70;;;30.30;99.90;;;;;;4157642;28;20061;-63
2022/07/14 07:02:15;;;;;;;0.93;0.63;;;30.10;99.90;;;;;;4156267;28;20137;-63
2022/07/14 07:04:23;;;;;;;1.20;0.73;;;30.10;99.90;;;;;;4157836;28;20079;-63
2022/07/14 07:06:44;;;;;;;1.40;0.73;;;30.10;99.90;;;;;;4157153;28;20045;-63
2022/07/14 07:08:51;;;;;;;1.30;0.60;;;30.20;99.90;;;;;;4155223;28;20369;-63
2022/07/14 07:10:57;;;;;;;1.83;1.25;;;30.30;99.90;;;;;;4155563;28;20037;-63
2022/07/14 07:13:01;;;;;;;0.75;0.70;;;30.40;99.90;;;;;;4157056;28;20132;-64
2022/07/14 07:15:07;;;;;;;0.40;0.40;;;30.40;99.90;;;;;;4156832;28;20056;-64
2022/07/14 07:17:13;;;;;;;2.30;0.70;;;30.50;99.90;;;;;;4153996;28;20065;-63
2022/07/14 07:19:18;;;;;;;0.80;0.60;;;30.60;99.90;;;;;;4157135;28;20056;-63
2022/07/14 07:21:23;;;;;;;1.63;0.60;;;30.50;99.90;;;;;;4157156;28;20041;-62
2022/07/14 07:23:44;;;;;;;2.15;0.63;;;30.60;99.90;;;;;;4155387;28;20159;-64
2022/07/14 07:25:49;;;;;;;0.82;0.60;;;30.50;99.90;;;;;;4154662;28;20491;-64
2022/07/14 07:27:56;;;;;;;1.33;0.75;;;30.50;99.90;;;;;;4156548;28;20051;-63
2022/07/14 07:30:05;;;;;;;1.13;0.70;;;30.50;99.90;;;;;;4137688;28;20049;-64
2022/07/14 07:32:11;;;;;;;1.85;0.70;;;30.50;99.90;;;;;;4155026;28;20961;-63
2022/07/14 07:34:18;;;;;;;0.98;0.63;;;30.40;99.90;;;;;;4155877;28;20482;-64
2022/07/14 07:36:25;;;;;;;0.98;0.70;;;30.30;99.90;;;;;;4157056;28;20081;-63
2022/07/14 07:38:29;;;;;;;0.60;0.60;;;30.30;99.90;;;;;;4161382;28;20052;-62
2022/07/14 07:40:35;;;;;;;1.73;0.60;;;30.30;99.90;;;;;;4169615;28;20147;-64
2022/07/14 07:42:41;;;;;;;0.70;0.45;;;30.20;99.90;;;;;;4164318;28;20119;-64
2022/07/14 07:44:48;;;;;;;2.70;0.60;;;30.30;99.90;;;;;;4169564;28;20041;-63
2022/07/14 07:46:53;;;;;;;0.93;0.52;;;30.30;99.90;;;;;;4168779;28;20586;-63
2022/07/14 07:48:59;;;;;;;13.02;0.73;;;30.10;99.90;;;;;;4163897;28;20041;-66
2022/07/14 07:51:16;;;;;;;1.17;0.63;;;30.10;99.90;;;;;;4162281;28;20049;-62
2022/07/14 07:53:34;;;;;;;3.92;0.90;;;30.30;99.90;;;;;;4158773;28;20056;-63
2022/07/14 07:55:39;;;;;;;1.55;0.82;;;30.30;99.90;;;;;;4162230;28;20048;-63
2022/07/14 07:57:44;;;;;;;0.82;0.65;;;30.30;99.90;;;;;;4164398;28;20087;-62
2022/07/14 07:59:49;;;;;;;0.88;0.55;;;30.30;99.90;;;;;;4169649;28;20044;-62
2022/07/14 08:01:53;;;;;;;0.70;0.55;;;30.40;99.90;;;;;;4167890;28;20047;-62
2022/07/14 08:03:58;;;;;;;0.80;0.40;;;30.40;99.90;;;;;;4167936;28;20037;-63
2022/07/14 08:06:07;;;;;;;0.60;0.50;;;30.50;99.90;;;;;;4168871;28;20052;-63
2022/07/14 08:08:33;;;;;;;0.82;0.55;;;30.40;99.90;;;;;;4160238;28;20217;-62
2022/07/14 08:10:38;;;;;;;1.13;0.40;;;30.50;99.90;;;;;;4162522;28;20072;-63
2022/07/14 08:12:46;;;;;;;0.60;0.38;;;30.60;99.90;;;;;;4162650;28;20443;-63
2022/07/14 08:14:53;;;;;;;0.88;0.52;;;30.70;99.90;;;;;;4160420;28;20049;-63
2022/07/14 08:16:58;;;;;;;1.10;0.45;;;30.70;99.90;;;;;;4162138;28;20140;-63
2022/07/14 08:19:03;;;;;;;0.75;0.47;;;30.70;99.90;;;;;;4162264;28;20470;-63
2022/07/14 08:21:08;;;;;;;1.67;0.60;;;30.70;99.90;;;;;;4162255;28;20053;-63
2022/07/14 08:23:13;;;;;;;0.90;0.50;;;30.70;99.90;;;;;;4160262;28;20515;-63
2022/07/14 08:25:18;;;;;;;0.68;0.50;;;30.80;99.90;;;;;;4162049;28;20045;-62
2022/07/14 08:27:22;;;;;;;0.98;0.50;;;30.80;99.90;;;;;;4162127;28;20068;-64
2022/07/14 08:29:27;;;;;;;0.70;0.70;;;30.70;99.90;;;;;;4161100;28;20041;-64
2022/07/14 08:31:33;;;;;;;1.08;0.50;;;30.70;99.90;;;;;;4159416;28;20082;-65
2022/07/14 08:33:44;;;;;;;0.80;0.60;;;30.60;99.90;;;;;;4162396;28;20111;-63
2022/07/14 08:35:49;;;;;;;0.65;0.57;;;30.60;99.90;;;;;;4162370;28;20040;-63
2022/07/14 08:37:59;;;;;;;0.60;0.57;;;30.60;99.90;;;;;;4159708;28;20045;-63
2022/07/14 08:40:15;;;;;;;1.63;0.65;;;30.60;99.90;;;;;;4160721;28;20045;-63
2022/07/14 08:42:19;;;;;;;0.95;0.60;;;30.70;99.90;;;;;;4158692;28;20034;-63
2022/07/14 08:44:25;;;;;;;0.98;0.73;;;30.80;99.90;;;;;;4161537;28;20091;-63
2022/07/14 08:46:38;;;;;;;4.97;0.73;;;30.90;99.90;;;;;;4160623;28;20041;-63
2022/07/14 08:48:48;;;;;;;1.50;0.50;;;30.80;99.90;;;;;;4161725;28;20136;-64
2022/07/14 08:50:55;;;;;;;2.22;0.63;;;30.80;99.90;;;;;;4160810;28;20044;-64
2022/07/14 08:53:10;;;;;;;3.40;0.70;;;30.90;99.90;;;;;;4154026;28;20610;-63
2022/07/14 08:55:18;;;;;;;8.43;0.75;;;31.10;99.90;;;;;;4160128;28;20053;-63
2022/07/14 08:57:42;;;;;;;0.60;0.57;;;31.10;99.90;;;;;;4158503;28;20431;-65
2022/07/14 08:59:53;;;;;;;;;;;31.00;99.90;;;;;;4160505;28;20128;-63
2022/07/14 09:01:58;;;;;;;2.13;0.60;;;31.00;99.90;;;;;;4159045;28;19929;-65
2022/07/14 09:04:08;;;;;;;1.50;0.75;;;30.90;99.90;;;;;;4161365;28;20053;-64
2022/07/14 09:06:43;;;;;;;0.80;0.40;;;31.00;99.90;;;;;;4159411;28;20038;-65
2022/07/14 09:08:58;;;;;;;1.83;0.60;;;31.20;99.90;;;;;;4160785;28;20338;-64
2022/07/14 09:11:04;;;;;;;1.38;0.80;;;31.30;99.90;;;;;;4160847;28;20114;-63
2022/07/14 09:13:18;;;;;;;1.27;0.77;;;31.20;99.90;;;;;;4125746;28;20069;-63
2022/07/14 09:17:58;;;;;;;1.30;0.77;;;31.30;99.90;;;;;;4162660;28;20041;-64
2022/07/14 09:20:11;;;;;;;2.53;0.80;;;31.40;99.90;;;;;;4163386;28;20455;-63
2022/07/14 09:22:16;;;;;;;1.25;0.70;;;31.30;99.90;;;;;;4163793;28;20041;-63
2022/07/14 09:24:22;;;;;;;1.63;0.55;;;31.30;99.90;;;;;;4161874;28;20045;-63
2022/07/14 09:26:28;;;;;;;1.40;0.50;;;31.30;99.90;;;;;;4164077;28;20136;-63
2022/07/14 09:28:38;;;;;;;0.75;0.57;;;31.30;99.90;;;;;;4162853;28;20045;-64
2022/07/14 09:30:44;;;;;;;2.25;0.60;;;31.30;99.90;;;;;;4163020;28;20082;-63
2022/07/14 09:33:03;;;;;;;0.68;0.50;;;31.30;99.90;;;;;;4163147;28;20107;-62
2022/07/14 09:35:14;;;;;;;0.95;0.60;;;31.30;99.90;;;;;;4163914;28;20049;-63
2022/07/14 09:37:25;;;;;;;1.95;0.63;;;31.20;99.90;;;;;;4161942;28;20044;-63
2022/07/14 09:39:32;;;;;;;0.93;0.60;;;31.20;99.90;;;;;;4163268;28;20111;-63
2022/07/14 09:41:49;;;;;;;2.53;0.68;;;31.30;99.90;;;;;;4161275;28;20124;-64
2022/07/14 09:44:10;;;;;;;2.75;0.68;;;31.30;99.90;;;;;;4162768;28;20037;-63
2022/07/14 09:46:54;;;;;;;1.73;0.90;;;31.30;99.90;;;;;;4162882;28;20562;-63
2022/07/14 09:49:10;;;;;;;1.58;0.55;;;31.30;99.90;;;;;;4163235;28;20053;-64
2022/07/14 09:51:21;;;;;;;1.60;0.75;;;31.30;99.90;;;;;;4163104;28;20049;-64
2022/07/14 09:53:33;;;;;;;1.10;0.73;;;31.00;99.90;;;;;;4163121;28;20690;-63
2022/07/14 09:55:39;;;;;;;1.20;0.70;;;31.20;99.90;;;;;;4161414;28;20049;-63
2022/07/14 09:57:44;;;;;;;3.70;0.80;;;31.20;99.90;;;;;;4160536;28;20593;-63
2022/07/14 09:59:53;;;;;;;0.85;0.60;;;31.20;99.90;;;;;;4163221;28;20099;-63
2022/07/14 10:02:03;;;;;;;2.53;0.90;;;31.30;99.90;;;;;;4163501;28;20777;-63
2022/07/14 10:04:08;;;;;;;1.30;0.80;;;31.20;99.90;;;;;;4161184;28;20057;-64
2022/07/14 10:06:17;;;;;;;2.00;0.95;;;31.10;99.90;;;;;;4162560;28;20041;-65
2022/07/14 10:08:46;;;;;;;2.70;1.17;;;31.00;99.90;;;;;;4163188;28;20045;-64
2022/07/14 10:10:53;;;;;;;2.60;1.20;;;31.00;99.90;;;;;;4162377;28;20037;-64
2022/07/14 10:12:58;;;;;;;4.07;1.30;;;31.00;99.90;;;;;;4163211;28;20322;-64
2022/07/14 10:15:10;;;;;;;2.03;0.90;;;31.00;99.90;;;;;;4164081;28;20042;-64
2022/07/14 10:17:21;;;;;;;;;;;30.80;99.90;;;;;;4161319;28;20095;-64
2022/07/14 10:19:30;;;;;;;2.45;0.88;;;30.80;99.90;;;;;;4163747;28;19921;-64
2022/07/14 10:21:34;;;;;;;2.38;0.75;;;30.70;99.90;;;;;;4162863;28;20572;-63
2022/07/14 10:23:41;;;;;;;0.80;0.80;;;30.70;99.90;;;;;;4163204;28;20038;-64
2022/07/14 10:25:51;;;;;;;1.42;0.90;;;30.60;99.90;;;;;;4161651;28;20080;-63
2022/07/14 10:27:59;;;;;;;2.95;1.20;;;30.60;99.90;;;;;;4165065;28;20045;-63
2022/07/14 10:30:07;;;;;;;2.40;1.42;;;30.50;99.90;;;;;;4161643;28;20052;-63
2022/07/14 10:32:27;;;;;;;2.08;1.40;;;30.40;99.90;;;;;;4162877;28;20662;-63
2022/07/14 10:35:01;;;;;;;3.17;1.75;;;30.40;99.90;;;;;;4163230;28;20095;-65
2022/07/14 10:37:48;;;;;;;4.55;2.03;;;30.30;99.90;;;;;;4160563;28;20457;-64
2022/07/14 10:40:17;;;;;;;4.85;2.25;;;30.30;99.90;;;;;;4163272;28;20076;-64
2022/07/14 10:42:57;;;;;;;2.53;1.60;;;30.30;99.90;;;;;;4161573;28;20050;-65
2022/07/14 10:45:11;;;;;;;4.38;1.80;;;30.20;99.90;;;;;;4162474;28;20468;-64
2022/07/14 10:47:18;;;;;;;4.00;1.30;;;30.20;99.90;;;;;;4162248;28;20401;-63
2022/07/14 10:49:30;;;;;;;3.05;1.20;;;30.10;99.90;;;;;;4162540;28;20033;-62
2022/07/14 10:51:49;;;;;;;5.07;1.48;;;30.00;99.90;;;;;;4161956;28;20054;-61
2022/07/14 10:54:15;;;;;;;6.07;1.00;;;30.00;99.90;;;;;;4161606;28;20508;-64
2022/07/14 10:56:45;;;;;;;2.22;1.20;;;29.90;99.90;;;;;;4161230;28;20562;-63
2022/07/14 10:59:24;;;;;;;1.80;0.80;;;29.80;99.90;;;;;;4159962;28;20080;-64
2022/07/14 11:01:29;;;;;;;3.10;1.00;;;29.70;99.90;;;;;;4162546;28;20048;-63
2022/07/14 11:03:54;;;;;;;3.40;1.20;;;29.70;99.90;;;;;;4163082;28;20570;-63
2022/07/14 11:06:17;;;;;;;3.03;1.20;;;29.70;99.90;;;;;;4162654;28;20420;-63
2022/07/14 11:08:28;;;;;;;2.17;1.13;;;29.60;99.90;;;;;;4159746;28;20137;-63
2022/07/14 11:10:55;;;;;;;3.03;1.45;;;29.50;99.90;;;;;;4162205;28;20121;-63
2022/07/14 11:13:09;;;;;;;4.15;1.40;;;29.50;99.90;;;;;;4162321;28;20053;-63
2022/07/14 11:15:39;;;;;;;2.92;0.93;;;29.40;99.90;;;;;;4161912;28;20057;-63
2022/07/14 11:17:50;;;;;;;5.03;1.40;;;29.40;99.90;;;;;;4161692;28;20403;-63
2022/07/14 11:20:01;;;;;;;2.63;1.25;;;29.40;99.90;;;;;;4162427;28;20053;-64